Terminal Aerodrome Forecast
Issued by NWS

Home | Current Version | Previous Version | Text Only | Print | Product List | Glossary On
Versions: 1 2 3 4 5 6 7 8 9 10 11 12
266
FTUS42 TJSJ 240539
TAFNCM
TAF
TNCM 240539Z 2406/2506 09010KT P6SM VCSH FEW020 SCT035
     FM241430 10014KT P6SM SCT024
     FM242300 07009KT P6SM VCSH FEW018 SCT035=

USA.gov is the U.S. government's official web portal to all federal, state and local government web resources and services.